KFNT

Bishop International Airport

Flint, Michigan, USA
METAR KFNT 150253Z 24005KT 10SM CLR 23/18 A2996 RMK AO2 SLP140 T02280183 51013 $
Observed Flight Rules
Aug-15 @ 02:53 UTC (42 minutes ago) Visual Flight Rules
Wind Visibility Clouds
240° at 5 knots 10 miles
  • Clear skies
Temperatures Readings
Current 23°C / 73°F
Dewpoint 18°C / 64°F
Humidity 74%
Altimeter 29.96" Hg
Pressure 1014 hPa
Elevation 233
METAR KFNT 150253Z 24005KT 10SM CLR 23/18 A2996 RMK AO2 SLP140 T02280183 51013 $
Observed Flight Rules
Aug-15 @ 02:53 UTC
(42 minutes ago)
VFR
Wind Visibility
240° at 5 knots 10 miles
Clouds
  • Clear skies
Temperature Dewpoint
23°C / 73°F 18°C / 64°F
Humidity Altimeter Pressure
74% 29.96" Hg 1014 hPa